createdAt,value
2019-02-10T00:00:28.563Z,1003.03
2019-02-10T00:01:28.554Z,1002.95
2019-02-10T00:02:28.544Z,1002.96
2019-02-10T00:03:28.530Z,1003.03
2019-02-10T00:04:28.521Z,1002.99
2019-02-10T00:05:28.514Z,1002.99
2019-02-10T00:06:28.500Z,1003.04
2019-02-10T00:07:28.485Z,1003.03
2019-02-10T00:08:28.477Z,1003.00
2019-02-10T00:09:28.465Z,1003.00
2019-02-10T00:10:28.469Z,1002.95
2019-02-10T00:11:28.441Z,1002.94
2019-02-10T00:12:28.431Z,1002.95
2019-02-10T00:13:28.419Z,1002.90
2019-02-10T00:14:28.408Z,1002.90
2019-02-10T00:15:28.397Z,1002.94
2019-02-10T00:16:28.391Z,1002.96
2019-02-10T00:17:28.374Z,1002.98
2019-02-10T00:18:28.362Z,1002.99
2019-02-10T00:19:28.351Z,1003.01
2019-02-10T00:20:28.341Z,1003.01
2019-02-10T00:21:28.332Z,1003.00
2019-02-10T00:22:28.327Z,1002.95
2019-02-10T00:23:28.307Z,1003.00
2019-02-10T00:24:28.297Z,1002.95
2019-02-10T00:25:28.284Z,1003.00
2019-02-10T00:26:28.274Z,1002.95
2019-02-10T00:27:28.265Z,1002.96
2019-02-10T00:28:28.251Z,1002.98
2019-02-10T00:29:28.239Z,1002.97
2019-02-10T00:30:28.229Z,1002.98
2019-02-10T00:31:28.218Z,1003.00
2019-02-10T00:32:28.206Z,1003.07
2019-02-10T00:33:28.200Z,1003.08
2019-02-10T00:34:28.184Z,1003.04
2019-02-10T00:35:28.173Z,1003.08
2019-02-10T00:36:33.250Z,1003.06
2019-02-10T00:37:29.151Z,1003.07
2019-02-10T00:38:28.151Z,1003.07
2019-02-10T00:39:28.127Z,1003.06
2019-02-10T00:40:28.116Z,1002.98
2019-02-10T00:41:28.106Z,1003.06
2019-02-10T00:42:28.094Z,1003.05
2019-02-10T00:43:28.083Z,1003.02
2019-02-10T00:44:28.093Z,1003.05
2019-02-10T00:45:28.063Z,1003.07
2019-02-10T00:46:28.053Z,1003.04
2019-02-10T00:47:28.039Z,1003.06
2019-02-10T00:48:28.027Z,1003.04
2019-02-10T00:49:28.020Z,1003.07
2019-02-10T00:50:28.013Z,1003.04
2019-02-10T00:51:28.001Z,1003.05
2019-02-10T00:52:27.982Z,1003.04
2019-02-10T00:53:27.972Z,1003.01
2019-02-10T00:54:27.960Z,1003.02
2019-02-10T00:55:27.948Z,1003.01
2019-02-10T00:56:27.938Z,1003.02
2019-02-10T00:57:27.926Z,1003.05
2019-02-10T00:58:27.915Z,1003.01
2019-02-10T00:59:27.904Z,1003.00
2019-02-10T01:00:27.894Z,1003.05
2019-02-10T01:01:27.886Z,1003.02
2019-02-10T01:02:27.871Z,1003.01
2019-02-10T01:03:27.859Z,1003.01
2019-02-10T01:04:27.847Z,1003.02
2019-02-10T01:05:27.840Z,1003.08
2019-02-10T01:06:27.828Z,1003.05
2019-02-10T01:07:27.814Z,1003.03
2019-02-10T01:08:27.804Z,1003.01
2019-02-10T01:09:27.791Z,1003.01
2019-02-10T01:10:27.781Z,1002.99
2019-02-10T01:11:27.769Z,1002.99
2019-02-10T01:12:27.761Z,1003.00
2019-02-10T01:13:27.750Z,1002.96
2019-02-10T01:14:27.738Z,1002.91
2019-02-10T01:15:27.724Z,1002.83
2019-02-10T01:16:27.715Z,1002.84
2019-02-10T01:17:27.707Z,1002.86
2019-02-10T01:18:27.703Z,1002.83
2019-02-10T01:19:27.681Z,1002.85
2019-02-10T01:20:27.668Z,1002.85
2019-02-10T01:21:27.659Z,1002.85
2019-02-10T01:22:27.645Z,1002.79
2019-02-10T01:23:27.639Z,1002.82
2019-02-10T01:24:27.625Z,1002.84
2019-02-10T01:25:27.613Z,1002.81
2019-02-10T01:26:27.600Z,1002.79
2019-02-10T01:27:27.590Z,1002.74
2019-02-10T01:28:27.580Z,1002.72
2019-02-10T01:29:27.575Z,1002.78
2019-02-10T01:30:27.557Z,1002.80
2019-02-10T01:31:27.546Z,1002.76
2019-02-10T01:32:27.534Z,1002.78
2019-02-10T01:33:27.524Z,1002.78
2019-02-10T01:34:27.519Z,1002.74
2019-02-10T01:35:27.501Z,1002.81
2019-02-10T01:36:27.490Z,1002.79
2019-02-10T01:37:27.479Z,1002.76
2019-02-10T01:38:27.471Z,1002.75
2019-02-10T01:39:27.455Z,1002.77
2019-02-10T01:40:27.448Z,1002.73
2019-02-10T01:41:27.436Z,1002.78
2019-02-10T01:42:27.424Z,1002.77
2019-02-10T01:43:27.412Z,1002.76
2019-02-10T01:44:27.403Z,1002.72
2019-02-10T01:45:27.394Z,1002.69
2019-02-10T01:46:27.379Z,1002.71
2019-02-10T01:47:27.368Z,1002.70
2019-02-10T01:48:27.551Z,1002.67
2019-02-10T01:49:27.345Z,1002.69
2019-02-10T01:50:27.333Z,1002.70
2019-02-10T01:51:27.325Z,1002.66
2019-02-10T01:52:27.312Z,1002.64
2019-02-10T01:53:27.303Z,1002.66
2019-02-10T01:54:27.292Z,1002.62
2019-02-10T01:55:27.277Z,1002.61
2019-02-10T01:56:27.269Z,1002.54
2019-02-10T01:57:27.269Z,1002.57
2019-02-10T01:58:27.245Z,1002.60
2019-02-10T01:59:27.235Z,1002.63
2019-02-10T02:00:27.222Z,1002.57
2019-02-10T02:01:27.216Z,1002.57
2019-02-10T02:02:27.201Z,1002.51
2019-02-10T02:03:27.191Z,1002.56
2019-02-10T02:04:27.179Z,1002.59
2019-02-10T02:05:27.167Z,1002.58
2019-02-10T02:06:27.156Z,1002.57
2019-02-10T02:07:27.147Z,1002.58
2019-02-10T02:08:27.137Z,1002.56
2019-02-10T02:09:27.123Z,1002.58
2019-02-10T02:10:27.112Z,1002.54
2019-02-10T02:11:27.100Z,1002.60
2019-02-10T02:12:27.090Z,1002.56
2019-02-10T02:13:27.081Z,1002.53
2019-02-10T02:14:27.076Z,1002.54
2019-02-10T02:15:27.057Z,1002.56
2019-02-10T02:16:27.053Z,1002.51
2019-02-10T02:17:27.037Z,1002.46
2019-02-10T02:18:27.026Z,1002.41
2019-02-10T02:19:27.012Z,1002.47
2019-02-10T02:20:27.011Z,1002.45
2019-02-10T02:21:26.989Z,1002.46
2019-02-10T02:22:26.980Z,1002.41
2019-02-10T02:23:26.968Z,1002.47
2019-02-10T02:24:26.958Z,1002.42
2019-02-10T02:25:26.950Z,1002.44
2019-02-10T02:26:26.933Z,1002.47
2019-02-10T02:27:26.922Z,1002.44
2019-02-10T02:28:26.913Z,1002.46
2019-02-10T02:29:26.909Z,1002.42
2019-02-10T02:30:26.894Z,1002.49
2019-02-10T02:31:26.878Z,1002.45
2019-02-10T02:32:26.868Z,1002.48
2019-02-10T02:33:26.861Z,1002.44
2019-02-10T02:34:26.845Z,1002.42
2019-02-10T02:35:26.836Z,1002.46
2019-02-10T02:36:26.828Z,1002.39
2019-02-10T02:37:26.812Z,1002.47
2019-02-10T02:38:26.799Z,1002.44
2019-02-10T02:39:26.790Z,1002.40
2019-02-10T02:40:26.777Z,1002.34
2019-02-10T02:41:26.767Z,1002.28
2019-02-10T02:42:26.760Z,1002.32
2019-02-10T02:43:26.746Z,1002.34
2019-02-10T02:44:26.733Z,1002.28
2019-02-10T02:45:26.723Z,1002.31
2019-02-10T02:46:26.722Z,1002.29
2019-02-10T02:47:26.702Z,1002.22
2019-02-10T02:48:26.690Z,1002.22
2019-02-10T02:49:26.688Z,1002.25
2019-02-10T02:50:26.668Z,1002.22
2019-02-10T02:51:26.656Z,1002.26
2019-02-10T02:52:26.719Z,1002.22
2019-02-10T02:53:26.639Z,1002.20
2019-02-10T02:54:26.623Z,1002.17
2019-02-10T02:55:26.669Z,1002.14
2019-02-10T02:56:26.602Z,1002.09
2019-02-10T02:57:26.590Z,1002.12
2019-02-10T02:58:26.582Z,1002.15
2019-02-10T02:59:26.568Z,1002.10
2019-02-10T03:00:26.559Z,1002.09
2019-02-10T03:01:26.565Z,1002.07
2019-02-10T03:02:26.533Z,1002.10
2019-02-10T03:03:26.524Z,1002.07
2019-02-10T03:04:26.513Z,1002.06
2019-02-10T03:05:26.516Z,1002.02
2019-02-10T03:06:26.491Z,1002.01
2019-02-10T03:07:26.480Z,1002.01
2019-02-10T03:08:26.468Z,1001.97
2019-02-10T03:09:26.462Z,1001.95
2019-02-10T03:10:26.450Z,1001.94
2019-02-10T03:11:26.436Z,1001.83
2019-02-10T03:12:26.424Z,1001.90
2019-02-10T03:13:26.415Z,1001.86
2019-02-10T03:14:26.403Z,1001.91
2019-02-10T03:15:26.425Z,1001.85
2019-02-10T03:16:26.379Z,1001.83
2019-02-10T03:17:26.370Z,1001.84
2019-02-10T03:18:26.355Z,1001.87
2019-02-10T03:19:26.346Z,1001.88
2019-02-10T03:20:26.344Z,1001.78
2019-02-10T03:21:26.326Z,1001.85
2019-02-10T03:22:26.319Z,1001.78
2019-02-10T03:23:26.304Z,1001.87
2019-02-10T03:24:26.291Z,1001.78
2019-02-10T03:25:26.285Z,1001.75
2019-02-10T03:26:26.269Z,1001.76
2019-02-10T03:27:26.269Z,1001.76
2019-02-10T03:28:26.255Z,1001.77
2019-02-10T03:29:26.235Z,1001.81
2019-02-10T03:30:26.232Z,1001.79
2019-02-10T03:31:26.213Z,1001.74
2019-02-10T03:32:26.205Z,1001.76
2019-02-10T03:33:26.209Z,1001.76
2019-02-10T03:34:26.178Z,1001.74
2019-02-10T03:35:26.169Z,1001.76
2019-02-10T03:36:26.164Z,1001.75
2019-02-10T03:37:27.471Z,1001.72
2019-02-10T03:38:26.145Z,1001.77
2019-02-10T03:39:26.124Z,1001.75
2019-02-10T03:40:26.114Z,1001.77
2019-02-10T03:41:26.102Z,1001.75
2019-02-10T03:42:26.093Z,1001.65
2019-02-10T03:43:26.081Z,1001.66
2019-02-10T03:44:26.068Z,1001.62
2019-02-10T03:45:26.056Z,1001.68
2019-02-10T03:46:26.045Z,1001.59
2019-02-10T03:47:26.055Z,1001.57
2019-02-10T03:48:26.023Z,1001.55
2019-02-10T03:49:26.012Z,1001.51
2019-02-10T03:50:26.009Z,1001.53
2019-02-10T03:51:25.997Z,1001.49
2019-02-10T03:52:25.978Z,1001.50
2019-02-10T03:53:25.969Z,1001.51
2019-02-10T03:54:25.956Z,1001.50
2019-02-10T03:55:25.953Z,1001.49
2019-02-10T03:56:25.935Z,1001.45
2019-02-10T03:57:25.923Z,1001.47
2019-02-10T03:58:25.911Z,1001.41
2019-02-10T03:59:25.902Z,1001.44
2019-02-10T04:00:25.897Z,1001.41
2019-02-10T04:01:25.940Z,1001.42
2019-02-10T04:02:25.871Z,1001.42
2019-02-10T04:03:25.857Z,1001.45
2019-02-10T04:04:25.848Z,1001.42
2019-02-10T04:05:25.833Z,1001.39
2019-02-10T04:06:25.827Z,1001.36
2019-02-10T04:07:25.815Z,1001.38
2019-02-10T04:08:25.799Z,1001.33
2019-02-10T04:09:25.799Z,1001.32
2019-02-10T04:10:25.778Z,1001.27
2019-02-10T04:11:25.805Z,1001.26
2019-02-10T04:12:25.762Z,1001.27
2019-02-10T04:13:25.748Z,1001.26
2019-02-10T04:14:25.733Z,1001.25
2019-02-10T04:15:25.722Z,1001.22
2019-02-10T04:16:25.712Z,1001.24
2019-02-10T04:17:25.701Z,1001.26
2019-02-10T04:18:25.691Z,1001.25
2019-02-10T04:19:25.683Z,1001.23
2019-02-10T04:20:25.666Z,1001.24
2019-02-10T04:21:25.655Z,1001.22
2019-02-10T04:22:25.645Z,1001.20
2019-02-10T04:23:25.636Z,1001.19
2019-02-10T04:24:25.623Z,1001.15
2019-02-10T04:25:25.612Z,1001.19
2019-02-10T04:26:25.610Z,1001.21
2019-02-10T04:27:25.594Z,1001.19
2019-02-10T04:28:25.597Z,1001.13
2019-02-10T04:29:25.572Z,1001.16
2019-02-10T04:30:25.568Z,1001.12
2019-02-10T04:31:25.570Z,1001.06
2019-02-10T04:32:25.533Z,1001.10
2019-02-10T04:33:25.524Z,1001.12
2019-02-10T04:34:25.513Z,1001.10
2019-02-10T04:35:25.505Z,1001.10
2019-02-10T04:36:25.493Z,1001.04
2019-02-10T04:37:25.479Z,1001.02
2019-02-10T04:38:25.474Z,1001.10
2019-02-10T04:39:25.457Z,1001.03
2019-02-10T04:40:25.456Z,1001.01
2019-02-10T04:41:25.437Z,1001.04
2019-02-10T04:42:25.437Z,1001.00
2019-02-10T04:43:25.428Z,1001.04
2019-02-10T04:44:25.430Z,1001.00
2019-02-10T04:45:25.399Z,1001.02
2019-02-10T04:46:25.381Z,1001.01
2019-02-10T04:47:25.398Z,1001.02
2019-02-10T04:48:25.380Z,1001.00
2019-02-10T04:49:25.385Z,1001.00
2019-02-10T04:50:25.335Z,1000.99
2019-02-10T04:51:25.326Z,1000.85
2019-02-10T04:52:25.312Z,1000.95
2019-02-10T04:53:25.311Z,1000.91
2019-02-10T04:54:25.289Z,1000.93
2019-02-10T04:55:25.277Z,1000.91
2019-02-10T04:56:25.319Z,1000.87
2019-02-10T04:57:25.256Z,1000.87
2019-02-10T04:58:25.245Z,1000.88
2019-02-10T04:59:25.236Z,1000.83
2019-02-10T05:00:25.223Z,1000.84
2019-02-10T05:01:25.211Z,1000.79
2019-02-10T05:02:25.201Z,1000.78
2019-02-10T05:03:25.189Z,1000.75
2019-02-10T05:04:25.220Z,1000.79
2019-02-10T05:05:25.167Z,1000.78
2019-02-10T05:06:25.187Z,1000.73
2019-02-10T05:07:25.147Z,1000.75
2019-02-10T05:08:25.138Z,1000.76
2019-02-10T05:09:25.122Z,1000.70
2019-02-10T05:10:25.122Z,1000.64
2019-02-10T05:11:25.102Z,1000.69
2019-02-10T05:12:25.092Z,1000.65
2019-02-10T05:13:25.087Z,1000.64
2019-02-10T05:14:25.068Z,1000.61
2019-02-10T05:16:52.164Z,1000.60
2019-02-10T05:19:19.098Z,1000.58
2019-02-10T05:20:37.222Z,1000.49
2019-02-10T05:22:18.953Z,1000.52
2019-02-10T05:23:18.939Z,1000.56
2019-02-10T05:26:09.792Z,1000.52
2019-02-10T05:28:36.733Z,1000.47
2019-02-10T05:31:04.656Z,1000.36
2019-02-10T05:32:25.280Z,1000.32
2019-02-10T05:33:46.184Z,1000.33
2019-02-10T05:35:04.303Z,1000.28
2019-02-10T05:36:38.997Z,1000.30
2019-02-10T05:38:04.150Z,1000.25
2019-02-10T05:39:21.517Z,1000.24
2019-02-10T05:40:39.636Z,1000.20
2019-02-10T05:42:03.182Z,1000.20
2019-02-10T05:44:31.485Z,1000.18
2019-02-10T05:45:51.107Z,1000.14
2019-02-10T05:47:13.013Z,1000.08
2019-02-10T05:48:13.001Z,1000.03
2019-02-10T05:49:55.551Z,1000.03
2019-02-10T05:50:55.539Z,1000.01
2019-02-10T05:52:37.072Z,999.98
2019-02-10T05:53:37.061Z,1000.00
2019-02-10T05:55:18.614Z,999.99
2019-02-10T05:56:18.599Z,999.91
2019-02-10T05:58:00.138Z,999.91
2019-02-10T05:59:00.117Z,999.84
2019-02-10T06:00:41.657Z,999.85
2019-02-10T06:01:41.643Z,999.80
2019-02-10T06:03:23.206Z,999.79
2019-02-10T06:04:23.220Z,999.78
2019-02-10T06:06:04.740Z,999.76
2019-02-10T06:07:04.854Z,999.71
2019-02-10T06:08:46.278Z,999.77
2019-02-10T06:09:46.270Z,999.72
2019-02-10T06:11:16.947Z,999.72
2019-02-10T06:12:16.935Z,999.69
2019-02-10T06:13:58.987Z,999.62
2019-02-10T06:14:58.964Z,999.55
2019-02-10T06:15:58.954Z,999.53
2019-02-10T06:16:58.944Z,999.52
2019-02-10T06:17:58.931Z,999.42
2019-02-10T06:18:58.929Z,999.46
2019-02-10T06:19:58.909Z,999.46
2019-02-10T06:20:58.898Z,999.43
2019-02-10T06:21:58.887Z,999.38
2019-02-10T06:22:58.885Z,999.35
2019-02-10T06:23:58.866Z,999.35
2019-02-10T06:24:58.857Z,999.33
2019-02-10T06:25:58.843Z,999.31
2019-02-10T06:26:58.831Z,999.38
2019-02-10T06:27:58.829Z,999.36
2019-02-10T06:28:58.809Z,999.32
2019-02-10T06:29:58.801Z,999.35
2019-02-10T06:30:58.789Z,999.34
2019-02-10T06:31:58.775Z,999.32
2019-02-10T06:32:58.769Z,999.34
2019-02-10T06:33:58.753Z,999.37
2019-02-10T06:34:58.743Z,999.32
2019-02-10T06:35:58.732Z,999.34
2019-02-10T06:36:58.722Z,999.31
2019-02-10T06:37:58.711Z,999.25
2019-02-10T06:38:58.702Z,999.27
2019-02-10T06:39:58.689Z,999.29
2019-02-10T06:40:58.678Z,999.25
2019-02-10T06:41:58.668Z,999.21
2019-02-10T06:42:58.654Z,999.21
2019-02-10T06:43:58.643Z,999.16
2019-02-10T06:44:58.635Z,999.07
2019-02-10T06:45:58.623Z,999.07
2019-02-10T06:46:58.670Z,999.05
2019-02-10T06:47:58.599Z,999.03
2019-02-10T06:48:58.591Z,999.00
2019-02-10T06:49:58.576Z,999.08
2019-02-10T06:50:58.565Z,999.05
2019-02-10T06:51:58.553Z,999.07
2019-02-10T06:52:58.543Z,999.01
2019-02-10T06:53:58.538Z,999.07
2019-02-10T06:54:58.523Z,999.10
2019-02-10T06:55:58.510Z,999.06
2019-02-10T06:56:58.498Z,999.03
2019-02-10T06:57:58.491Z,999.03
2019-02-10T06:58:58.482Z,999.07
2019-02-10T06:59:58.470Z,999.05
2019-02-10T07:00:58.453Z,998.97
2019-02-10T07:01:58.444Z,998.97
2019-02-10T07:02:58.433Z,998.97
2019-02-10T07:03:58.420Z,998.99
2019-02-10T07:04:58.409Z,998.99
2019-02-10T07:05:58.399Z,998.99
2019-02-10T07:06:58.396Z,998.97
2019-02-10T07:07:58.376Z,998.93
2019-02-10T07:08:58.373Z,998.90
2019-02-10T07:09:58.357Z,998.89
2019-02-10T07:10:58.342Z,998.88
2019-02-10T07:11:58.332Z,998.88
2019-02-10T07:12:58.320Z,998.79
2019-02-10T07:13:58.309Z,998.76
2019-02-10T07:14:58.309Z,998.79
2019-02-10T07:15:58.291Z,998.75
2019-02-10T07:16:58.276Z,998.77
2019-02-10T07:17:58.267Z,998.74
2019-02-10T07:18:58.253Z,998.71
2019-02-10T07:19:58.243Z,998.68
2019-02-10T07:20:58.232Z,998.63
2019-02-10T07:21:58.220Z,998.61
2019-02-10T07:22:58.209Z,998.63
2019-02-10T07:23:58.198Z,998.62
2019-02-10T07:24:58.188Z,998.63
2019-02-10T07:25:58.176Z,998.60
2019-02-10T07:26:58.170Z,998.54
2019-02-10T07:27:58.153Z,998.53
2019-02-10T07:28:58.145Z,998.56
2019-02-10T07:29:58.131Z,998.50
2019-02-10T07:30:58.122Z,998.42
2019-02-10T07:31:58.115Z,998.47
2019-02-10T07:32:58.098Z,998.43
2019-02-10T07:33:58.607Z,998.40
2019-02-10T07:34:58.075Z,998.39
2019-02-10T07:35:58.064Z,998.36
2019-02-10T07:36:58.052Z,998.40
2019-02-10T07:37:58.048Z,998.35
2019-02-10T07:38:58.035Z,998.35
2019-02-10T07:39:58.019Z,998.32
2019-02-10T07:40:58.008Z,998.29
2019-02-10T07:41:57.997Z,998.29
2019-02-10T07:42:57.992Z,998.27
2019-02-10T07:43:57.983Z,998.22
2019-02-10T07:44:57.963Z,998.12
2019-02-10T07:45:57.955Z,998.16
2019-02-10T07:46:57.941Z,998.10
2019-02-10T07:47:57.968Z,998.11
2019-02-10T07:48:57.920Z,998.08
2019-02-10T07:49:57.940Z,998.05
2019-02-10T07:50:57.897Z,998.06
2019-02-10T07:51:57.885Z,998.03
2019-02-10T07:52:57.875Z,997.93
2019-02-10T07:53:57.863Z,997.91
2019-02-10T07:54:57.855Z,997.86
2019-02-10T07:55:57.841Z,997.77
2019-02-10T07:56:57.830Z,997.73
2019-02-10T07:57:57.818Z,997.73
2019-02-10T07:58:57.810Z,997.79
2019-02-10T07:59:57.802Z,997.78
2019-02-10T08:00:57.785Z,997.77
2019-02-10T08:01:57.774Z,997.76
2019-02-10T08:02:57.769Z,997.66
2019-02-10T08:03:57.752Z,997.67
2019-02-10T08:04:57.742Z,997.68
2019-02-10T08:05:57.730Z,997.64
2019-02-10T08:06:57.720Z,997.68
2019-02-10T08:07:57.706Z,997.68
2019-02-10T08:08:57.696Z,997.71
2019-02-10T08:09:57.685Z,997.68
2019-02-10T08:10:57.676Z,997.59
2019-02-10T08:11:57.663Z,997.60
2019-02-10T08:12:57.652Z,997.57
2019-02-10T08:13:57.643Z,997.52
2019-02-10T08:14:57.629Z,997.52
2019-02-10T08:15:57.620Z,997.50
2019-02-10T08:16:57.608Z,997.56
2019-02-10T08:17:57.596Z,997.50
2019-02-10T08:18:57.584Z,997.54
2019-02-10T08:19:57.573Z,997.53
2019-02-10T08:20:57.561Z,997.52
2019-02-10T08:21:57.551Z,997.51
2019-02-10T08:22:57.546Z,997.50
2019-02-10T08:23:57.528Z,997.50
2019-02-10T08:24:57.518Z,997.47
2019-02-10T08:25:57.506Z,997.43
2019-02-10T08:26:57.495Z,997.43
2019-02-10T08:27:57.579Z,997.43
2019-02-10T08:28:57.502Z,997.37
2019-02-10T08:29:57.461Z,997.34
2019-02-10T08:30:57.450Z,997.33
2019-02-10T08:31:57.439Z,997.27
2019-02-10T08:32:57.426Z,997.24
2019-02-10T08:33:57.418Z,997.23
2019-02-10T08:34:57.408Z,997.24
2019-02-10T08:35:57.395Z,997.22
2019-02-10T08:36:57.382Z,997.18
2019-02-10T08:37:57.372Z,997.11
2019-02-10T08:38:57.369Z,997.11
2019-02-10T08:39:57.350Z,997.14
2019-02-10T08:40:57.339Z,997.08
2019-02-10T08:41:57.326Z,997.07
2019-02-10T08:42:57.317Z,997.03
2019-02-10T08:43:57.305Z,996.96
2019-02-10T08:44:57.293Z,996.88
2019-02-10T08:45:57.283Z,996.91
2019-02-10T08:46:57.271Z,996.89
2019-02-10T08:47:57.259Z,996.84
2019-02-10T08:48:57.248Z,996.80
2019-02-10T08:49:57.238Z,996.77
2019-02-10T08:50:57.230Z,996.73
2019-02-10T08:51:57.216Z,996.68
2019-02-10T08:52:57.205Z,996.63
2019-02-10T08:53:57.192Z,996.58
2019-02-10T08:54:57.183Z,996.54
2019-02-10T08:55:57.176Z,996.50
2019-02-10T08:56:57.237Z,996.44
2019-02-10T08:57:57.147Z,996.41
2019-02-10T08:58:57.137Z,996.36
2019-02-10T08:59:57.124Z,996.29
2019-02-10T09:00:57.169Z,996.30
2019-02-10T09:01:57.105Z,996.26
2019-02-10T09:02:57.092Z,996.19
2019-02-10T09:03:57.081Z,996.21
2019-02-10T09:04:57.069Z,996.17
2019-02-10T09:05:57.086Z,996.13
2019-02-10T09:06:57.056Z,996.11
2019-02-10T09:07:57.044Z,995.99
2019-02-10T09:09:02.477Z,995.97
2019-02-10T09:09:58.018Z,995.86
2019-02-10T09:10:57.004Z,995.86
2019-02-10T09:11:56.993Z,995.87
2019-02-10T09:12:56.980Z,995.82
2019-02-10T09:13:56.969Z,995.83
2019-02-10T09:14:56.959Z,995.77
2019-02-10T09:15:56.949Z,995.74
2019-02-10T09:16:56.935Z,995.69
2019-02-10T09:17:56.924Z,995.70
2019-02-10T09:18:56.916Z,995.67
2019-02-10T09:19:56.902Z,995.63
2019-02-10T09:20:56.889Z,995.60
2019-02-10T09:21:56.880Z,995.53
2019-02-10T09:22:56.876Z,995.46
2019-02-10T09:23:56.862Z,995.31
2019-02-10T09:24:56.845Z,995.37
2019-02-10T09:25:56.835Z,995.27
2019-02-10T09:26:56.826Z,995.31
2019-02-10T09:27:56.813Z,995.25
2019-02-10T09:28:56.801Z,995.21
2019-02-10T09:29:56.790Z,995.07
2019-02-10T09:30:56.779Z,995.13
2019-02-10T09:31:56.769Z,995.07
2019-02-10T09:32:56.760Z,995.09
2019-02-10T09:33:56.750Z,995.03
2019-02-10T09:34:56.737Z,994.99
2019-02-10T09:35:56.730Z,994.97
2019-02-10T09:36:56.714Z,994.93
2019-02-10T09:37:56.701Z,994.91
2019-02-10T09:38:56.689Z,994.89
2019-02-10T09:39:56.680Z,994.86
2019-02-10T09:40:56.677Z,994.86
2019-02-10T09:41:56.657Z,994.77
2019-02-10T09:42:56.645Z,994.76
2019-02-10T09:43:56.634Z,994.65
2019-02-10T09:44:56.628Z,994.62
2019-02-10T09:45:56.614Z,994.60
2019-02-10T09:46:56.609Z,994.58
2019-02-10T09:47:56.596Z,994.50
2019-02-10T09:48:56.579Z,994.50
2019-02-10T09:49:56.615Z,994.41
2019-02-10T09:50:56.557Z,994.38
2019-02-10T09:51:56.549Z,994.32
2019-02-10T09:52:56.535Z,994.33
2019-02-10T09:53:56.522Z,994.31
2019-02-10T09:54:56.512Z,994.21
2019-02-10T09:55:56.500Z,994.19
2019-02-10T09:56:56.492Z,994.18
2019-02-10T09:57:56.481Z,994.24
2019-02-10T09:58:56.467Z,994.13
2019-02-10T09:59:56.456Z,994.17
2019-02-10T10:00:56.448Z,994.05
2019-02-10T10:01:56.437Z,994.09
2019-02-10T10:02:56.426Z,994.04
2019-02-10T10:03:56.416Z,994.05
2019-02-10T10:04:56.401Z,993.95
2019-02-10T10:05:56.390Z,993.91
2019-02-10T10:06:56.379Z,993.89
2019-02-10T10:07:56.371Z,993.88
2019-02-10T10:08:56.363Z,993.79
2019-02-10T10:09:56.351Z,993.77
2019-02-10T10:10:56.334Z,993.72
2019-02-10T10:11:56.326Z,993.69
2019-02-10T10:12:56.316Z,993.66
2019-02-10T10:13:56.301Z,993.67
2019-02-10T10:14:56.295Z,993.59
2019-02-10T10:15:56.281Z,993.55
2019-02-10T10:16:56.267Z,993.45
2019-02-10T10:17:56.257Z,993.40
2019-02-10T10:18:56.249Z,993.39
2019-02-10T10:19:56.238Z,993.27
2019-02-10T10:20:56.229Z,993.25
2019-02-10T10:21:56.212Z,993.13
2019-02-10T10:22:56.200Z,993.19
2019-02-10T10:23:56.190Z,993.09
2019-02-10T10:24:56.180Z,993.07
2019-02-10T10:25:56.167Z,993.04
2019-02-10T10:26:56.157Z,993.00
2019-02-10T10:27:56.146Z,992.94
2019-02-10T10:28:56.135Z,992.97
2019-02-10T10:29:56.123Z,992.96
2019-02-10T10:30:56.117Z,992.89
2019-02-10T10:31:56.101Z,992.98
2019-02-10T10:32:56.089Z,992.92
2019-02-10T10:33:56.079Z,992.90
2019-02-10T10:34:56.067Z,992.85
2019-02-10T10:35:56.057Z,992.79
2019-02-10T10:36:56.060Z,992.77
2019-02-10T10:37:56.034Z,992.67
2019-02-10T10:38:56.026Z,992.62
2019-02-10T10:39:56.013Z,992.59
2019-02-10T10:40:56.003Z,992.58
2019-02-10T10:41:55.990Z,992.54
2019-02-10T10:42:55.981Z,992.51
2019-02-10T10:43:55.968Z,992.47
2019-02-10T10:44:55.957Z,992.34
2019-02-10T10:45:55.945Z,992.32
2019-02-10T10:46:55.936Z,992.27
2019-02-10T10:47:55.924Z,992.18
2019-02-10T10:48:55.918Z,992.15
2019-02-10T10:49:55.949Z,992.23
2019-02-10T10:50:55.890Z,992.11
2019-02-10T10:51:55.880Z,992.03
2019-02-10T10:52:55.868Z,992.00
2019-02-10T10:53:55.860Z,991.91
2019-02-10T10:54:55.854Z,991.95
2019-02-10T10:55:55.835Z,991.87
2019-02-10T10:56:55.822Z,991.85
2019-02-10T10:57:55.811Z,991.76
2019-02-10T10:58:55.800Z,991.84
2019-02-10T10:59:55.791Z,991.79
2019-02-10T11:00:55.777Z,991.75
2019-02-10T11:01:55.766Z,991.65
2019-02-10T11:02:55.757Z,991.67
2019-02-10T11:03:55.745Z,991.65
2019-02-10T11:04:55.736Z,991.58
2019-02-10T11:05:55.726Z,991.60
2019-02-10T11:06:55.710Z,991.53
2019-02-10T11:07:55.700Z,991.58
2019-02-10T11:08:55.690Z,991.56
2019-02-10T11:09:55.679Z,991.51
2019-02-10T11:10:55.676Z,991.53
2019-02-10T11:11:55.655Z,991.51
2019-02-10T11:12:55.645Z,991.44
2019-02-10T11:13:55.634Z,991.47
2019-02-10T11:14:55.623Z,991.42
2019-02-10T11:15:57.214Z,991.40
2019-02-10T11:16:55.603Z,991.38
2019-02-10T11:17:55.589Z,991.18
2019-02-10T11:18:55.577Z,991.16
2019-02-10T11:19:55.567Z,991.18
2019-02-10T11:20:55.555Z,991.23
2019-02-10T11:21:55.544Z,991.12
2019-02-10T11:22:55.540Z,991.12
2019-02-10T11:23:55.521Z,991.04
2019-02-10T11:24:55.511Z,991.08
2019-02-10T11:25:55.499Z,991.03
2019-02-10T11:26:55.487Z,990.94
2019-02-10T11:27:55.481Z,990.86
2019-02-10T11:28:55.466Z,990.85
2019-02-10T11:29:55.455Z,990.87
2019-02-10T11:30:55.446Z,990.87
2019-02-10T11:31:55.433Z,990.91
2019-02-10T11:32:55.421Z,991.00
2019-02-10T11:33:55.415Z,990.96
2019-02-10T11:34:55.402Z,990.97
2019-02-10T11:35:55.391Z,990.90
2019-02-10T11:36:55.376Z,990.88
2019-02-10T11:37:55.365Z,990.77
2019-02-10T11:38:55.363Z,990.85
2019-02-10T11:39:55.346Z,990.74
2019-02-10T11:40:55.333Z,990.61
2019-02-10T11:41:55.323Z,990.54
2019-02-10T11:42:55.318Z,990.55
2019-02-10T11:43:55.300Z,990.56
2019-02-10T11:44:55.291Z,990.62
2019-02-10T11:45:55.277Z,990.53
2019-02-10T11:46:55.266Z,990.57
2019-02-10T11:47:55.256Z,990.38
2019-02-10T11:48:55.242Z,990.27
2019-02-10T11:49:55.235Z,990.26
2019-02-10T11:50:55.249Z,990.10
2019-02-10T11:51:55.209Z,990.12
2019-02-10T11:52:55.198Z,990.20
2019-02-10T11:53:55.196Z,990.21
2019-02-10T11:54:55.179Z,990.30
2019-02-10T11:55:55.165Z,990.31
2019-02-10T11:56:55.155Z,990.25
2019-02-10T11:57:55.147Z,990.16
2019-02-10T11:58:55.132Z,990.05
2019-02-10T11:59:55.122Z,989.89
2019-02-10T12:00:55.108Z,989.92
2019-02-10T12:01:55.099Z,989.95
2019-02-10T12:02:55.087Z,989.92
2019-02-10T12:03:55.075Z,989.94
2019-02-10T12:04:55.064Z,989.93
2019-02-10T12:05:55.054Z,989.91
2019-02-10T12:06:55.044Z,989.93
2019-02-10T12:07:55.032Z,989.95
2019-02-10T12:08:55.020Z,989.88
2019-02-10T12:09:55.011Z,989.88
2019-02-10T12:10:54.997Z,989.96
2019-02-10T12:11:54.987Z,989.97
2019-02-10T12:12:54.975Z,989.83
2019-02-10T12:13:54.966Z,989.75
2019-02-10T12:14:54.954Z,989.76
2019-02-10T12:15:54.942Z,989.76
2019-02-10T12:16:54.931Z,989.80
2019-02-10T12:17:54.919Z,989.70
2019-02-10T12:18:54.915Z,989.65
2019-02-10T12:19:54.897Z,989.64
2019-02-10T12:20:54.889Z,989.61
2019-02-10T12:21:54.876Z,989.63
2019-02-10T12:22:54.864Z,989.62
2019-02-10T12:23:54.852Z,989.58
2019-02-10T12:24:54.842Z,989.49
2019-02-10T12:25:54.832Z,989.52
2019-02-10T12:26:54.819Z,989.42
2019-02-10T12:27:54.808Z,989.48
2019-02-10T12:28:54.796Z,989.45
2019-02-10T12:29:54.789Z,989.42
2019-02-10T12:30:54.773Z,989.38
2019-02-10T12:31:54.762Z,989.38
2019-02-10T12:32:54.751Z,989.29
2019-02-10T12:33:54.739Z,989.31
2019-02-10T12:34:54.734Z,989.31
2019-02-10T12:35:58.387Z,989.28
2019-02-10T12:36:54.708Z,989.20
2019-02-10T12:40:42.595Z,989.13